Time;durP1;ratioP1;P1;durP2;ratioP2;P2;SDS_P1;SDS_P2;PMS_P1;PMS_P2;Temp;Humidity;BMP_temperature;BMP_pressure;BME280_temperature;BME280_humidity;BME280_pressure;Samples;Min_cycle;Max_cycle;Signal;HPM_P1;HPM_P2
2022/01/29 00:00:11;;;;;;;15.87;14.17;;;12.30;91.20;;;;;;5052801;28;20444;-50
2022/01/29 00:02:38;;;;;;;15.60;14.20;;;12.30;91.30;;;;;;5052903;28;20452;-50
2022/01/29 00:05:07;;;;;;;15.60;14.03;;;12.30;92.00;;;;;;5052884;28;20450;-50
2022/01/29 00:07:33;;;;;;;13.57;12.30;;;12.20;91.50;;;;;;5052442;28;20526;-51
2022/01/29 00:10:03;;;;;;;17.00;15.43;;;12.40;92.30;;;;;;5052637;28;20487;-51
2022/01/29 00:12:31;;;;;;;14.00;12.80;;;12.30;92.10;;;;;;5052555;28;20506;-55
2022/01/29 00:14:57;;;;;;;14.70;13.40;;;12.30;92.70;;;;;;5052699;28;20828;-51
2022/01/29 00:17:24;;;;;;;13.20;12.20;;;12.30;93.50;;;;;;5052084;28;20830;-53
2022/01/29 00:19:51;;;;;;;16.10;14.20;;;12.30;93.10;;;;;;5052578;28;20808;-51
2022/01/29 00:22:19;;;;;;;15.43;14.13;;;12.40;93.10;;;;;;5052449;28;20452;-51
2022/01/29 00:24:46;;;;;;;16.70;15.30;;;12.20;93.40;;;;;;5052400;28;20467;-50
2022/01/29 00:27:13;;;;;;;15.80;14.50;;;12.30;93.60;;;;;;5052113;28;20470;-54
2022/01/29 00:29:42;;;;;;;18.00;16.20;;;12.20;94.30;;;;;;5052448;28;20615;-51
2022/01/29 00:32:10;;;;;;;17.37;15.87;;;12.40;93.30;;;;;;5052297;28;20444;-50
2022/01/29 00:34:37;;;;;;;15.43;14.17;;;12.20;94.00;;;;;;5052712;28;20436;-54
2022/01/29 00:37:05;;;;;;;28.73;14.60;;;12.30;95.20;;;;;;5052126;28;20829;-52
2022/01/29 00:39:34;;;;;;;18.03;16.63;;;12.20;94.60;;;;;;5052202;28;20463;-53
2022/01/29 00:42:01;;;;;;;15.33;14.00;;;12.30;94.70;;;;;;5052305;28;20445;-49
2022/01/29 00:44:28;;;;;;;14.70;13.47;;;12.30;94.80;;;;;;5052363;28;20440;-51
2022/01/29 00:46:54;;;;;;;17.33;15.63;;;12.40;95.20;;;;;;5051814;28;20452;-50
2022/01/29 00:49:21;;;;;;;16.17;14.73;;;12.30;94.70;;;;;;5052124;28;20945;-49
2022/01/29 00:51:48;;;;;;;16.77;15.37;;;12.30;95.50;;;;;;5052056;28;20476;-50
2022/01/29 00:54:15;;;;;;;18.80;17.20;;;12.30;95.00;;;;;;5052127;28;20448;-50
2022/01/29 00:56:43;;;;;;;16.20;14.50;;;12.30;95.20;;;;;;5051753;28;20854;-53
2022/01/29 00:59:09;;;;;;;18.37;16.77;;;12.40;95.40;;;;;;5051951;28;20952;-52
2022/01/29 01:01:36;;;;;;;19.10;17.37;;;12.30;95.90;;;;;;5052007;28;20786;-51
2022/01/29 01:04:03;;;;;;;25.43;15.90;;;12.30;95.60;;;;;;5051855;28;20821;-50
2022/01/29 01:06:30;;;;;;;19.27;15.90;;;12.30;95.80;;;;;;5051465;28;20771;-51
2022/01/29 01:08:56;;;;;;;17.53;15.83;;;12.30;95.90;;;;;;5051058;28;20472;-50
2022/01/29 01:11:23;;;;;;;16.30;13.43;;;12.40;95.80;;;;;;5051554;28;20491;-52
2022/01/29 01:13:51;;;;;;;15.77;14.37;;;12.50;95.00;;;;;;5051646;28;20448;-54
2022/01/29 01:16:18;;;;;;;16.53;15.13;;;12.40;95.30;;;;;;5051423;28;20454;-49
2022/01/29 01:18:45;;;;;;;16.37;14.77;;;12.40;95.40;;;;;;5051656;28;20486;-48
2022/01/29 01:21:11;;;;;;;16.30;14.87;;;12.40;95.50;;;;;;5051548;28;20451;-49
2022/01/29 01:23:38;;;;;;;18.10;16.50;;;12.30;96.10;;;;;;5051570;28;20801;-50
2022/01/29 01:26:06;;;;;;;18.93;17.00;;;12.20;96.60;;;;;;5051209;28;20455;-49
2022/01/29 01:28:33;;;;;;;20.10;18.10;;;12.30;96.30;;;;;;5050899;28;20476;-53
2022/01/29 01:31:01;;;;;;;9.93;9.33;;;12.10;97.20;;;;;;5051470;28;20499;-52
2022/01/29 01:33:28;;;;;;;10.27;9.77;;;13.00;99.30;;;;;;5050856;28;20451;-51
2022/01/29 01:35:59;;;;;;;10.30;9.60;;;13.80;97.90;;;;;;5051413;28;20467;-49
2022/01/29 01:38:34;;;;;;;8.80;8.40;;;14.20;94.90;;;;;;5051367;28;20464;-52
2022/01/29 01:41:05;;;;;;;9.10;8.60;;;14.50;93.80;;;;;;5051555;28;20447;-49
2022/01/29 01:43:32;;;;;;;9.00;8.40;;;14.70;92.70;;;;;;5051361;28;21222;-49
2022/01/29 01:46:00;;;;;;;9.00;8.60;;;14.80;91.70;;;;;;5051104;28;20448;-52
2022/01/29 01:48:27;;;;;;;8.93;8.47;;;14.90;91.50;;;;;;5051292;28;20463;-49
2022/01/29 01:50:54;;;;;;;9.53;8.97;;;15.00;90.90;;;;;;5050878;28;20863;-53
2022/01/29 01:53:21;;;;;;;9.83;9.43;;;15.10;90.40;;;;;;5051402;28;20444;-56
2022/01/29 01:55:48;;;;;;;9.47;8.90;;;15.20;90.20;;;;;;5051193;28;20459;-51
2022/01/29 01:58:15;;;;;;;8.57;8.03;;;15.30;88.50;;;;;;5051402;28;20472;-50
2022/01/29 02:00:42;;;;;;;9.40;8.57;;;15.30;86.80;;;;;;5051293;28;20440;-50
2022/01/29 02:03:11;;;;;;;8.30;8.00;;;15.30;85.50;;;;;;5050898;28;20458;-49
2022/01/29 02:05:38;;;;;;;9.27;8.77;;;15.30;85.20;;;;;;5050776;28;20452;-48
2022/01/29 02:08:07;;;;;;;8.03;7.73;;;15.40;84.30;;;;;;5051014;28;20965;-48
2022/01/29 02:10:34;;;;;;;8.93;8.43;;;15.40;83.80;;;;;;5051007;28;20484;-48
2022/01/29 02:13:03;;;;;;;7.40;7.10;;;15.40;83.50;;;;;;5050941;28;20456;-51
2022/01/29 02:15:30;;;;;;;9.00;8.50;;;15.50;82.80;;;;;;5050786;28;20444;-48
2022/01/29 02:17:57;;;;;;;8.70;8.40;;;15.50;82.40;;;;;;5050898;28;20841;-49
2022/01/29 02:20:28;;;;;;;11.60;8.20;;;15.50;81.80;;;;;;5053438;28;20444;-53
2022/01/29 02:22:58;;;;;;;7.70;7.40;;;15.60;81.80;;;;;;5054736;28;20452;-49
2022/01/29 02:25:37;;;;;;;7.80;7.50;;;15.50;81.90;;;;;;5054543;28;20455;-54
2022/01/29 02:28:07;;;;;;;8.23;7.73;;;15.60;81.30;;;;;;5054756;28;20474;-52
2022/01/29 02:30:35;;;;;;;8.97;8.53;;;15.60;80.90;;;;;;5054271;28;20459;-49
2022/01/29 02:33:05;;;;;;;8.17;7.67;;;15.60;80.60;;;;;;5054447;28;20527;-51
2022/01/29 02:35:32;;;;;;;8.80;8.30;;;15.60;80.40;;;;;;5054377;28;20456;-49
2022/01/29 02:38:00;;;;;;;7.80;7.57;;;15.60;80.50;;;;;;5054412;28;20973;-48
2022/01/29 02:40:28;;;;;;;9.57;9.00;;;15.60;80.40;;;;;;5054185;28;20969;-49
2022/01/29 02:42:56;;;;;;;7.90;7.60;;;15.60;80.50;;;;;;5054509;28;20460;-48
2022/01/29 02:45:23;;;;;;;9.00;8.60;;;15.60;80.20;;;;;;5054205;28;20452;-49
2022/01/29 02:47:49;;;;;;;8.30;8.00;;;15.60;80.00;;;;;;5054169;28;20556;-53
2022/01/29 02:50:16;;;;;;;8.37;7.93;;;15.70;79.80;;;;;;5054112;28;20451;-49
2022/01/29 02:52:43;;;;;;;8.03;7.63;;;15.70;79.30;;;;;;5054130;28;20488;-50
2022/01/29 02:55:11;;;;;;;7.97;7.67;;;15.70;79.10;;;;;;5054323;28;20469;-51
2022/01/29 02:57:38;;;;;;;7.50;7.30;;;15.70;79.50;;;;;;5054010;28;20828;-50
2022/01/29 03:00:10;;;;;;;7.60;7.30;;;15.60;79.50;;;;;;5053809;28;20459;-49
2022/01/29 03:02:37;;;;;;;8.73;8.33;;;15.60;80.00;;;;;;5054030;28;20436;-49
2022/01/29 03:05:04;;;;;;;8.40;8.00;;;15.60;79.60;;;;;;5054053;28;20451;-51
2022/01/29 03:07:31;;;;;;;7.70;7.43;;;15.70;79.30;;;;;;5053710;28;20831;-49
2022/01/29 03:09:58;;;;;;;8.47;8.17;;;15.70;79.50;;;;;;5053729;28;20444;-52
2022/01/29 03:12:26;;;;;;;9.13;8.60;;;15.60;79.60;;;;;;5053667;28;21000;-49
2022/01/29 03:14:52;;;;;;;7.87;7.60;;;15.70;79.40;;;;;;5053866;28;20466;-51
2022/01/29 03:17:19;;;;;;;7.80;7.50;;;15.70;79.70;;;;;;5053381;28;20476;-50
2022/01/29 03:19:46;;;;;;;7.60;7.30;;;15.70;79.80;;;;;;5053714;28;20452;-49
2022/01/29 03:22:13;;;;;;;7.43;7.23;;;15.60;79.60;;;;;;5053503;28;20938;-49
2022/01/29 03:24:39;;;;;;;8.60;8.20;;;15.70;79.80;;;;;;5053627;28;20444;-47
2022/01/29 03:27:06;;;;;;;7.87;7.30;;;15.70;79.00;;;;;;5053315;28;20524;-49
2022/01/29 03:29:34;;;;;;;8.43;8.03;;;15.70;79.10;;;;;;5053385;28;20448;-49
2022/01/29 03:32:01;;;;;;;7.07;6.83;;;15.70;78.90;;;;;;5052714;28;20480;-50
2022/01/29 03:34:28;;;;;;;6.87;6.63;;;15.70;79.00;;;;;;5053010;28;20451;-48
2022/01/29 03:36:56;;;;;;;7.80;7.23;;;15.70;79.30;;;;;;5053232;28;20452;-50
2022/01/29 03:39:24;;;;;;;9.30;8.80;;;15.60;79.60;;;;;;5053381;28;20456;-52
2022/01/29 03:41:51;;;;;;;7.33;7.13;;;15.60;79.60;;;;;;5053075;28;20501;-52
2022/01/29 03:44:18;;;;;;;8.30;7.70;;;15.70;79.80;;;;;;5053394;28;20444;-49
2022/01/29 03:46:47;;;;;;;7.23;6.93;;;15.60;79.60;;;;;;5052871;28;20444;-48
2022/01/29 03:49:14;;;;;;;7.53;7.33;;;15.70;79.80;;;;;;5053324;28;20444;-48
2022/01/29 03:51:41;;;;;;;7.67;7.30;;;15.70;79.90;;;;;;5052823;28;20484;-52
2022/01/29 03:54:07;;;;;;;6.93;6.73;;;15.70;79.80;;;;;;5053174;28;20451;-52
2022/01/29 03:56:34;;;;;;;6.63;6.43;;;15.70;79.60;;;;;;5052907;28;20448;-50
2022/01/29 03:59:01;;;;;;;7.47;7.17;;;15.60;79.80;;;;;;5052971;28;20475;-48
2022/01/29 04:01:28;;;;;;;7.80;7.50;;;15.70;80.20;;;;;;5052698;28;20444;-52
2022/01/29 04:03:57;;;;;;;6.90;6.60;;;15.70;80.20;;;;;;5052927;28;20444;-48
2022/01/29 04:06:24;;;;;;;7.73;7.43;;;15.70;80.30;;;;;;5052609;28;20832;-50
2022/01/29 04:08:50;;;;;;;7.63;7.33;;;15.60;80.30;;;;;;5052766;28;20483;-48
2022/01/29 04:11:17;;;;;;;7.80;7.50;;;15.60;80.50;;;;;;5052580;28;20832;-49
2022/01/29 04:13:47;;;;;;;7.30;7.10;;;15.60;80.70;;;;;;5052583;28;20447;-51
2022/01/29 04:16:15;;;;;;;6.97;6.77;;;15.60;81.20;;;;;;5052425;28;20444;-50
2022/01/29 04:18:42;;;;;;;7.30;7.00;;;15.60;81.60;;;;;;5052466;28;20472;-51
2022/01/29 04:21:11;;;;;;;7.77;7.37;;;15.50;81.70;;;;;;5052384;28;20440;-48
2022/01/29 04:23:38;;;;;;;7.20;6.90;;;15.60;81.70;;;;;;5052724;28;20444;-50
2022/01/29 04:26:05;;;;;;;7.13;6.83;;;15.50;82.00;;;;;;5052312;28;20444;-48
2022/01/29 04:28:37;;;;;;;7.27;7.07;;;15.60;82.10;;;;;;5052253;28;20475;-53
2022/01/29 04:31:09;;;;;;;7.87;7.50;;;15.60;82.20;;;;;;5052117;28;20539;-51
2022/01/29 04:33:36;;;;;;;8.00;7.50;;;15.70;82.00;;;;;;5052210;28;20449;-51
2022/01/29 04:36:05;;;;;;;7.53;7.33;;;15.70;81.90;;;;;;5052191;28;20813;-52
2022/01/29 04:38:34;;;;;;;7.40;7.10;;;15.60;81.80;;;;;;5052164;28;20703;-48
2022/01/29 04:41:04;;;;;;;8.03;7.73;;;15.70;82.00;;;;;;5051856;28;20946;-49
2022/01/29 04:43:31;;;;;;;7.97;7.67;;;15.60;81.90;;;;;;5051361;28;20448;-49
2022/01/29 04:45:58;;;;;;;7.50;7.30;;;15.60;82.00;;;;;;5051980;28;20454;-51
2022/01/29 04:48:25;;;;;;;7.90;7.60;;;15.60;81.90;;;;;;5052117;28;20841;-49
2022/01/29 04:50:52;;;;;;;7.67;7.37;;;15.60;81.70;;;;;;5051950;28;20448;-49
2022/01/29 04:53:19;;;;;;;7.87;7.67;;;15.60;82.20;;;;;;5051908;28;20480;-54
2022/01/29 04:55:47;;;;;;;8.20;7.90;;;15.60;82.20;;;;;;5051717;28;20805;-49
2022/01/29 04:58:13;;;;;;;7.33;7.13;;;15.60;82.50;;;;;;5051752;28;20472;-53
2022/01/29 05:00:40;;;;;;;7.43;7.17;;;15.60;82.50;;;;;;5051662;28;20440;-51
2022/01/29 05:03:10;;;;;;;7.47;7.20;;;15.60;82.40;;;;;;5051722;28;20995;-49
2022/01/29 05:05:38;;;;;;;8.17;7.97;;;15.60;82.40;;;;;;5051738;28;20444;-49
2022/01/29 05:08:05;;;;;;;7.10;6.90;;;15.60;82.50;;;;;;5051673;28;20464;-56
2022/01/29 05:10:32;;;;;;;7.30;7.10;;;15.60;82.50;;;;;;5051421;28;20455;-53
2022/01/29 05:13:04;;;;;;;7.17;6.97;;;15.60;82.30;;;;;;5051720;28;21122;-49
2022/01/29 05:15:38;;;;;;;7.17;6.97;;;15.50;82.80;;;;;;5051563;28;20467;-52
2022/01/29 05:29:05;;;;;;;7.83;7.30;;;15.60;83.50;;;;;;5051705;28;20419;-53
2022/01/29 05:31:32;;;;;;;6.63;6.43;;;15.60;82.70;;;;;;5051211;28;20452;-57
2022/01/29 05:33:59;;;;;;;7.83;7.63;;;15.60;83.00;;;;;;5051229;28;20448;-51
2022/01/29 05:36:26;;;;;;;7.40;7.17;;;15.60;83.20;;;;;;5051227;28;20451;-57
2022/01/29 05:38:53;;;;;;;7.30;7.10;;;15.70;83.10;;;;;;5051326;28;20464;-51
2022/01/29 05:41:20;;;;;;;6.30;6.13;;;15.70;82.90;;;;;;5051004;28;20451;-54
2022/01/29 05:43:47;;;;;;;7.57;7.37;;;15.70;82.80;;;;;;5051450;28;20451;-55
2022/01/29 05:46:16;;;;;;;7.33;7.13;;;15.60;82.70;;;;;;5051197;28;20810;-57
2022/01/29 05:48:43;;;;;;;7.47;7.27;;;15.60;82.80;;;;;;5051343;28;20472;-57
2022/01/29 05:51:10;;;;;;;8.07;7.77;;;16.10;85.70;;;;;;5051343;28;20444;-57
2022/01/29 05:53:38;;;;;;;7.70;7.50;;;17.30;80.40;;;;;;5051285;28;20484;-57
2022/01/29 05:56:05;;;;;;;7.00;6.80;;;17.80;74.10;;;;;;5054694;28;20804;-57
2022/01/29 05:58:32;;;;;;;7.17;6.97;;;18.10;71.40;;;;;;5055262;28;20475;-55
2022/01/29 06:00:59;;;;;;;7.63;7.43;;;18.50;69.70;;;;;;5054986;28;20466;-51
2022/01/29 06:03:27;;;;;;;7.97;7.70;;;19.00;67.00;;;;;;5055197;28;20440;-57
2022/01/29 06:05:54;;;;;;;7.27;7.13;;;19.40;64.00;;;;;;5055056;28;20448;-54
2022/01/29 06:08:20;;;;;;;7.40;7.20;;;19.70;61.60;;;;;;5054948;28;20464;-53
2022/01/29 06:10:47;;;;;;;8.27;8.07;;;19.80;59.80;;;;;;5054821;28;20445;-55
2022/01/29 06:13:16;;;;;;;7.90;7.70;;;20.00;58.90;;;;;;5054996;28;20503;-55
2022/01/29 06:15:44;;;;;;;7.20;7.00;;;20.10;57.90;;;;;;5054892;28;20444;-52
2022/01/29 06:18:15;;;;;;;7.20;7.00;;;20.10;57.30;;;;;;5054658;28;20479;-51
2022/01/29 06:20:44;;;;;;;7.70;7.50;;;20.20;56.90;;;;;;5054587;28;20980;-55
2022/01/29 06:23:12;;;;;;;7.77;7.57;;;20.20;56.60;;;;;;5054890;28;20809;-52
2022/01/29 06:25:39;;;;;;;7.50;7.30;;;20.30;56.20;;;;;;5054178;28;20444;-52
2022/01/29 06:28:06;;;;;;;7.67;7.47;;;20.30;55.80;;;;;;5054597;28;20468;-53
2022/01/29 06:30:33;;;;;;;7.73;7.53;;;20.20;55.50;;;;;;5054682;28;20817;-52
2022/01/29 06:33:07;;;;;;;8.23;8.03;;;20.20;55.40;;;;;;5054650;28;20475;-53
2022/01/29 06:35:34;;;;;;;7.97;7.77;;;20.10;55.20;;;;;;5034672;28;20449;-54
2022/01/29 06:38:02;;;;;;;7.50;7.30;;;20.10;55.10;;;;;;5048404;28;21011;-56
2022/01/29 06:40:29;;;;;;;8.13;7.83;;;20.10;55.00;;;;;;5054608;28;20785;-55
2022/01/29 06:42:56;;;;;;;7.57;7.37;;;20.10;54.90;;;;;;5054387;28;20450;-50
2022/01/29 06:45:23;;;;;;;7.80;7.60;;;20.10;54.90;;;;;;5054083;28;20452;-51
2022/01/29 06:47:50;;;;;;;7.50;7.30;;;20.00;54.70;;;;;;5054215;28;20849;-53
2022/01/29 06:50:16;;;;;;;7.50;7.30;;;20.00;54.60;;;;;;5054402;28;20456;-54
2022/01/29 06:52:43;;;;;;;7.50;7.27;;;19.90;54.60;;;;;;5054178;28;20487;-58
2022/01/29 06:55:11;;;;;;;7.77;7.57;;;19.90;54.50;;;;;;5053794;28;20444;-49
2022/01/29 06:57:38;;;;;;;7.07;6.90;;;19.90;54.40;;;;;;5054065;28;20479;-55
2022/01/29 07:00:07;;;;;;;8.00;7.80;;;19.90;54.50;;;;;;5054161;28;20815;-54
2022/01/29 07:02:34;;;;;;;7.23;7.13;;;19.90;54.50;;;;;;5054133;28;20455;-55
2022/01/29 07:05:01;;;;;;;8.47;8.17;;;19.80;54.40;;;;;;5053883;28;20459;-55
2022/01/29 07:07:28;;;;;;;7.70;7.50;;;19.70;54.40;;;;;;5052650;28;20468;-53
2022/01/29 07:09:54;;;;;;;6.47;6.27;;;19.70;54.50;;;;;;5053905;28;20440;-58
2022/01/29 07:12:23;;;;;;;5.93;5.83;;;19.70;54.50;;;;;;5043389;28;20795;-51
2022/01/29 07:14:50;;;;;;;5.80;5.70;;;19.70;54.70;;;;;;5042016;28;20452;-49
2022/01/29 07:17:26;;;;;;;5.70;5.60;;;19.60;54.80;;;;;;5041582;28;20475;-56
2022/01/29 07:19:53;;;;;;;5.67;5.53;;;19.60;55.30;;;;;;5041743;28;20846;-51
2022/01/29 07:22:21;;;;;;;6.40;6.20;;;19.60;55.50;;;;;;5041750;28;20485;-50
2022/01/29 07:24:48;;;;;;;8.07;7.87;;;19.50;55.60;;;;;;5041940;28;20488;-54
2022/01/29 07:27:15;;;;;;;7.60;7.40;;;19.50;55.90;;;;;;5041536;28;20468;-50
2022/01/29 07:29:44;;;;;;;7.40;7.20;;;19.50;56.30;;;;;;5041995;28;20456;-50
2022/01/29 07:32:12;;;;;;;6.90;6.70;;;19.40;56.40;;;;;;5041783;28;20565;-52
2022/01/29 07:34:39;;;;;;;7.10;6.90;;;19.40;56.60;;;;;;5041438;28;20566;-53
2022/01/29 07:37:06;;;;;;;6.60;6.40;;;19.40;56.80;;;;;;5040544;28;20440;-54
2022/01/29 07:39:34;;;;;;;7.33;7.13;;;19.30;56.80;;;;;;5041728;28;20217;-55
2022/01/29 07:42:01;;;;;;;7.07;6.87;;;19.30;56.80;;;;;;5041542;28;20452;-56
2022/01/29 07:44:29;;;;;;;7.20;6.90;;;19.30;56.70;;;;;;5041171;28;20460;-52
2022/01/29 07:46:58;;;;;;;7.23;7.03;;;19.20;56.50;;;;;;5041013;28;20494;-55
2022/01/29 07:49:26;;;;;;;7.87;7.67;;;19.20;56.70;;;;;;5041298;28;20558;-55
2022/01/29 07:51:53;;;;;;;7.83;7.63;;;19.20;57.00;;;;;;5041192;28;20868;-54
2022/01/29 07:54:21;;;;;;;8.50;8.30;;;19.20;57.20;;;;;;5041259;28;20476;-53
2022/01/29 07:56:48;;;;;;;7.10;6.90;;;19.10;57.30;;;;;;5040842;28;20456;-51
2022/01/29 07:59:15;;;;;;;7.23;7.03;;;19.10;57.50;;;;;;5040896;28;20464;-51
2022/01/29 08:01:41;;;;;;;7.17;6.97;;;19.10;57.60;;;;;;5041142;28;21021;-54
2022/01/29 08:04:09;;;;;;;8.00;7.80;;;19.10;57.80;;;;;;5040837;28;20443;-55
2022/01/29 08:06:36;;;;;;;7.30;6.80;;;19.00;58.00;;;;;;5041008;28;20449;-53
2022/01/29 08:09:03;;;;;;;7.30;7.10;;;19.00;58.20;;;;;;5041179;28;20814;-54
2022/01/29 08:11:30;;;;;;;6.27;6.17;;;19.00;58.30;;;;;;5040840;28;20815;-51
2022/01/29 08:13:57;;;;;;;6.20;6.10;;;18.90;58.40;;;;;;5040656;28;20490;-50
2022/01/29 08:16:23;;;;;;;6.87;6.60;;;18.90;58.60;;;;;;5040939;28;20459;-54
2022/01/29 08:18:50;;;;;;;7.53;7.33;;;18.90;58.80;;;;;;5040510;28;20952;-55
2022/01/29 08:21:18;;;;;;;6.77;6.57;;;18.90;58.90;;;;;;5040652;28;20456;-56
2022/01/29 08:23:46;;;;;;;6.97;6.77;;;18.80;59.10;;;;;;5040532;28;20444;-55
2022/01/29 08:26:13;;;;;;;6.70;6.50;;;18.80;59.30;;;;;;5040472;28;20444;-55
2022/01/29 08:28:40;;;;;;;6.53;6.43;;;18.70;59.60;;;;;;5040567;28;20507;-52
2022/01/29 08:31:07;;;;;;;6.73;6.63;;;18.70;59.90;;;;;;5040587;28;20455;-49
2022/01/29 08:33:35;;;;;;;6.45;6.25;;;18.80;60.10;;;;;;5022639;28;20510;-51
2022/01/29 08:36:04;;;;;;;6.30;6.17;;;18.90;60.10;;;;;;5020232;28;20341;-55
2022/01/29 08:38:32;;;;;;;7.03;6.90;;;18.90;60.00;;;;;;5020316;28;21029;-53
2022/01/29 08:40:59;;;;;;;6.23;6.13;;;19.00;59.70;;;;;;5020524;28;20453;-55
2022/01/29 08:43:27;;;;;;;8.50;8.20;;;19.20;59.60;;;;;;5037278;28;20506;-52
2022/01/29 08:45:54;;;;;;;7.53;7.33;;;19.20;59.20;;;;;;5039994;28;20921;-54
2022/01/29 08:48:22;;;;;;;7.30;6.97;;;19.30;59.20;;;;;;5040144;28;20599;-51
2022/01/29 08:50:49;;;;;;;7.80;7.60;;;19.30;59.20;;;;;;5039827;28;20443;-51
2022/01/29 08:53:17;;;;;;;7.13;6.93;;;19.40;59.30;;;;;;5039946;28;20495;-53
2022/01/29 08:55:46;;;;;;;7.40;7.10;;;19.50;59.30;;;;;;5040105;28;20481;-51
2022/01/29 08:58:13;;;;;;;8.20;7.90;;;19.50;59.50;;;;;;5039968;28;20500;-55
2022/01/29 09:00:44;;;;;;;8.10;7.90;;;19.40;59.40;;;;;;5039682;28;20444;-49
2022/01/29 09:03:13;;;;;;;7.60;7.40;;;19.40;59.50;;;;;;5039964;28;20449;-50
2022/01/29 09:05:40;;;;;;;6.40;6.20;;;19.50;59.60;;;;;;5039797;28;20693;-51
2022/01/29 09:08:07;;;;;;;7.70;7.50;;;19.40;59.70;;;;;;5039577;28;20476;-54
2022/01/29 09:10:34;;;;;;;7.50;7.30;;;19.40;59.70;;;;;;5039606;28;20460;-53
2022/01/29 09:13:03;;;;;;;7.30;7.10;;;19.40;59.70;;;;;;5039863;28;20484;-50
2022/01/29 09:15:30;;;;;;;7.60;7.40;;;19.40;59.70;;;;;;5039425;28;21194;-53
2022/01/29 09:17:57;;;;;;;7.03;6.83;;;19.40;59.70;;;;;;5039883;28;20682;-51
2022/01/29 09:20:25;;;;;;;7.27;7.07;;;19.40;59.80;;;;;;5039249;28;20463;-50
2022/01/29 09:22:51;;;;;;;6.70;6.50;;;19.40;59.90;;;;;;5039636;28;20452;-52
2022/01/29 09:25:18;;;;;;;6.40;6.30;;;19.40;59.90;;;;;;5039576;28;20452;-54
2022/01/29 09:27:45;;;;;;;6.70;6.60;;;19.40;60.20;;;;;;5039441;28;20788;-54
2022/01/29 09:30:14;;;;;;;7.47;7.27;;;19.40;60.40;;;;;;5039188;28;20451;-53
2022/01/29 09:32:40;;;;;;;7.27;7.07;;;19.40;60.50;;;;;;5039563;28;20518;-53
2022/01/29 09:35:08;;;;;;;6.93;6.73;;;19.40;60.90;;;;;;5039386;28;20448;-52
2022/01/29 09:37:35;;;;;;;6.90;6.80;;;19.40;61.30;;;;;;5039232;28;20475;-52
2022/01/29 09:40:02;;;;;;;7.60;7.40;;;19.30;61.60;;;;;;5039435;28;20452;-54
2022/01/29 09:42:29;;;;;;;7.10;6.90;;;19.30;62.00;;;;;;5039841;28;20456;-52
2022/01/29 09:44:56;;;;;;;7.37;7.17;;;19.30;62.40;;;;;;5039556;28;21030;-51
2022/01/29 09:47:25;;;;;;;7.00;6.60;;;19.20;62.40;;;;;;5039289;28;20775;-52
2022/01/29 09:49:53;;;;;;;6.10;6.00;;;19.20;63.30;;;;;;5039575;28;20456;-56
2022/01/29 09:52:20;;;;;;;6.80;6.60;;;19.10;63.70;;;;;;5039386;28;20459;-54
2022/01/29 09:54:49;;;;;;;7.23;6.93;;;19.10;64.30;;;;;;5039066;28;20491;-53
2022/01/29 09:57:16;;;;;;;6.30;6.20;;;19.00;65.00;;;;;;5039259;28;20479;-53
2022/01/29 09:59:42;;;;;;;7.37;6.57;;;18.90;65.40;;;;;;5039439;28;20961;-52
2022/01/29 10:02:16;;;;;;;7.83;7.63;;;18.90;66.00;;;;;;5039312;28;20448;-52
2022/01/29 10:04:50;;;;;;;7.93;7.60;;;18.80;66.60;;;;;;5039021;28;20455;-56
2022/01/29 10:07:18;;;;;;;7.00;6.70;;;18.80;67.70;;;;;;5038526;28;20448;-52
2022/01/29 10:09:45;;;;;;;6.90;6.70;;;18.70;68.30;;;;;;5039082;28;20206;-49
2022/01/29 10:12:23;;;;;;;7.47;7.27;;;18.70;68.60;;;;;;5039075;28;20980;-55
2022/01/29 10:14:55;;;;;;;6.80;6.60;;;18.70;68.90;;;;;;5039168;28;20480;-50
2022/01/29 10:17:43;;;;;;;6.40;6.30;;;18.70;69.30;;;;;;5038827;28;20881;-50
2022/01/29 10:20:14;;;;;;;7.80;7.60;;;18.70;69.50;;;;;;5038984;28;20952;-50
2022/01/29 10:22:41;;;;;;;7.33;7.13;;;18.60;70.20;;;;;;5038970;28;20483;-52
2022/01/29 10:25:12;;;;;;;5.40;5.30;;;18.60;70.60;;;;;;5038075;28;20470;-53
2022/01/29 10:27:39;;;;;;;7.07;6.87;;;18.60;71.00;;;;;;5038828;28;20225;-54
2022/01/29 10:30:10;;;;;;;6.83;6.63;;;18.70;70.80;;;;;;5037110;28;20463;-53
2022/01/29 10:32:36;;;;;;;6.83;6.73;;;18.70;70.70;;;;;;5035780;28;20456;-55
2022/01/29 10:35:04;;;;;;;7.40;7.03;;;18.60;70.90;;;;;;5038666;28;20490;-51
2022/01/29 10:37:32;;;;;;;8.43;7.60;;;18.60;74.40;;;;;;5038798;28;20475;-53
2022/01/29 10:40:00;;;;;;;10.13;9.00;;;18.60;85.40;;;;;;5039013;28;20451;-52
2022/01/29 10:42:31;;;;;;;10.30;9.50;;;18.60;94.80;;;;;;5041140;28;20981;-56
2022/01/29 10:45:02;;;;;;;10.83;9.30;;;18.70;99.90;;;;;;5042674;28;20910;-56
2022/01/29 10:47:29;;;;;;;12.10;9.70;;;18.70;99.90;;;;;;5042080;28;20467;-54
2022/01/29 10:49:58;;;;;;;17.40;10.10;;;18.80;99.90;;;;;;5042375;28;20444;-52
2022/01/29 10:52:30;;;;;;;15.87;11.40;;;18.80;99.90;;;;;;5042135;28;20475;-50
2022/01/29 10:55:00;;;;;;;15.10;9.53;;;18.80;99.90;;;;;;5042377;28;20952;-54
2022/01/29 10:57:35;;;;;;;20.77;10.70;;;18.90;99.90;;;;;;5042080;28;20853;-53
2022/01/29 11:00:05;;;;;;;22.03;9.93;;;18.90;99.90;;;;;;5041826;28;20454;-53
2022/01/29 11:02:32;;;;;;;20.87;10.27;;;18.90;99.90;;;;;;5041854;28;20452;-51
2022/01/29 11:05:01;;;;;;;15.57;8.97;;;18.90;99.90;;;;;;5037680;28;20456;-55
2022/01/29 11:07:29;;;;;;;15.93;9.93;;;18.90;99.90;;;;;;5038956;28;20949;-55
2022/01/29 11:09:57;;;;;;;22.63;11.07;;;18.90;99.90;;;;;;5041922;28;20534;-56
2022/01/29 11:12:27;;;;;;;11.10;8.17;;;18.90;99.90;;;;;;5042216;28;21021;-55
2022/01/29 11:14:56;;;;;;;22.07;8.80;;;18.90;99.90;;;;;;5041857;28;21099;-57
2022/01/29 11:17:24;;;;;;;12.20;8.97;;;18.90;99.90;;;;;;5042526;28;20535;-55
2022/01/29 11:19:51;;;;;;;10.60;8.63;;;18.90;99.90;;;;;;5041728;28;20449;-49
2022/01/29 11:22:23;;;;;;;14.30;9.30;;;18.90;99.90;;;;;;5042086;28;21105;-53
2022/01/29 11:24:55;;;;;;;8.87;8.07;;;18.90;99.90;;;;;;5034740;28;20441;-53
2022/01/29 11:27:25;;;;;;;10.13;8.60;;;18.90;99.90;;;;;;5041373;28;20480;-55
2022/01/29 11:30:01;;;;;;;10.80;9.67;;;18.90;99.90;;;;;;5041516;28;20459;-54
2022/01/29 11:32:38;;;;;;;7.83;7.23;;;18.90;99.90;;;;;;5041709;28;20486;-52
2022/01/29 11:35:14;;;;;;;8.40;7.60;;;18.90;99.90;;;;;;5041726;28;21107;-55
2022/01/29 11:37:57;;;;;;;10.13;8.17;;;18.90;99.90;;;;;;5041300;28;20581;-54
2022/01/29 11:40:27;;;;;;;9.17;8.37;;;18.90;99.90;;;;;;5040887;28;20444;-52
2022/01/29 11:43:25;;;;;;;7.63;6.93;;;18.90;99.90;;;;;;5041334;28;20790;-51
2022/01/29 11:45:57;;;;;;;12.50;7.67;;;18.80;99.90;;;;;;5028670;28;20823;-52
2022/01/29 11:48:52;;;;;;;10.17;7.37;;;18.80;99.90;;;;;;5041074;28;20980;-51
2022/01/29 11:51:46;;;;;;;7.77;7.00;;;18.80;99.90;;;;;;5021358;28;21281;-53
2022/01/29 11:54:20;;;;;;;8.07;7.28;;;18.70;99.90;;;;;;5025865;28;20491;-52
2022/01/29 11:56:49;;;;;;;10.57;8.57;;;18.60;99.90;;;;;;5041076;28;20204;-48
2022/01/29 11:59:34;;;;;;;7.53;6.97;;;18.80;99.90;;;;;;5040801;28;20926;-53
2022/01/29 12:02:04;;;;;;;7.00;6.60;;;19.00;99.90;;;;;;5040750;28;20797;-49
2022/01/29 12:05:07;;;;;;;8.80;7.30;;;19.80;99.90;;;;;;5040714;28;20440;-50
2022/01/29 12:07:38;;;;;;;7.10;6.50;;;20.50;99.90;;;;;;5039825;28;20439;-58
2022/01/29 12:10:10;;;;;;;7.43;6.93;;;20.80;99.90;;;;;;5040629;28;20198;-52
2022/01/29 12:12:38;;;;;;;8.03;7.57;;;21.30;98.70;;;;;;5041043;28;20545;-53
2022/01/29 12:15:44;;;;;;;7.70;7.20;;;21.80;95.90;;;;;;5040713;28;20461;-51
2022/01/29 12:18:33;;;;;;;7.37;6.93;;;22.00;93.90;;;;;;5035692;28;20495;-51
2022/01/29 12:21:01;;;;;;;7.10;6.80;;;22.10;91.90;;;;;;5040729;28;20456;-47
2022/01/29 12:23:28;;;;;;;8.23;7.80;;;22.10;90.40;;;;;;5040534;28;20444;-48
2022/01/29 12:25:57;;;;;;;8.87;8.10;;;22.20;90.10;;;;;;5040575;28;20448;-48
2022/01/29 12:28:24;;;;;;;8.27;7.67;;;22.20;88.60;;;;;;5040417;28;20474;-48
2022/01/29 12:30:52;;;;;;;7.40;6.87;;;22.20;86.40;;;;;;5040337;28;20456;-50
2022/01/29 12:33:27;;;;;;;7.83;7.43;;;22.20;85.20;;;;;;5040617;28;20960;-49
2022/01/29 12:35:58;;;;;;;7.20;6.73;;;22.30;85.00;;;;;;5040208;28;20880;-48
2022/01/29 12:38:27;;;;;;;7.60;7.20;;;22.60;83.00;;;;;;5040321;28;20472;-52
2022/01/29 12:40:57;;;;;;;8.10;7.53;;;22.80;80.30;;;;;;5040378;28;20448;-49
2022/01/29 12:43:29;;;;;;;6.73;6.50;;;22.90;77.50;;;;;;5040255;28;20456;-48
2022/01/29 12:46:08;;;;;;;5.83;5.50;;;23.10;75.70;;;;;;5039275;28;20448;-52
2022/01/29 12:48:35;;;;;;;7.70;7.40;;;23.10;73.90;;;;;;5040121;28;20532;-50
2022/01/29 12:51:08;;;;;;;7.33;7.03;;;23.30;72.40;;;;;;5040096;28;20261;-51
2022/01/29 12:53:35;;;;;;;7.80;7.30;;;23.30;70.30;;;;;;5040059;28;20938;-50
2022/01/29 12:56:04;;;;;;;7.60;7.10;;;23.20;70.30;;;;;;5040128;28;20440;-49
2022/01/29 12:58:33;;;;;;;8.07;7.67;;;23.20;70.00;;;;;;5040058;28;20464;-48
2022/01/29 13:01:09;;;;;;;8.27;7.97;;;23.20;69.20;;;;;;5040186;28;20444;-51